Time;durP1;ratioP1;P1;durP2;ratioP2;P2;SDS_P1;SDS_P2;PMS_P1;PMS_P2;Temp;Humidity;BMP_temperature;BMP_pressure;BME280_temperature;BME280_humidity;BME280_pressure;Samples;Min_cycle;Max_cycle;Signal;HPM_P1;HPM_P2
2021/03/17 00:00:53;;;;;;;44.80;27.95;;;;;;;3.75;82.25;101459.77;1756457;80;21904;-81
2021/03/17 00:03:20;;;;;;;50.95;28.80;;;;;;;3.74;82.09;101458.88;1724781;83;21166;-81
2021/03/17 00:05:48;;;;;;;52.73;31.07;;;;;;;3.76;82.19;101464.19;1724816;83;21161;-81
2021/03/17 00:08:19;;;;;;;48.92;29.60;;;;;;;3.74;82.00;101462.78;1756469;81;21270;-81
2021/03/17 00:10:48;;;;;;;52.93;31.15;;;;;;;3.72;81.99;101454.35;1724915;83;21156;-81
2021/03/17 00:13:17;;;;;;;48.75;30.00;;;;;;;3.69;81.97;101453.77;1724806;83;21909;-80
2021/03/17 00:15:44;;;;;;;48.10;28.83;;;;;;;3.68;82.05;101456.78;1724812;83;21167;-80
2021/03/17 00:18:13;;;;;;;45.58;27.70;;;;;;;3.68;82.04;101460.69;1724829;83;22382;-81
2021/03/17 00:20:40;;;;;;;44.03;26.90;;;;;;;3.65;81.96;101460.89;1756375;81;21157;-80
2021/03/17 00:23:07;;;;;;;39.45;24.47;;;;;;;3.61;82.06;101460.20;1724566;83;21212;-80
2021/03/17 00:25:37;;;;;;;46.45;25.70;;;;;;;3.60;82.20;101464.89;1724503;83;22005;-80
2021/03/17 00:28:04;;;;;;;42.05;24.63;;;;;;;3.60;82.14;101467.49;1756112;81;21410;-79
2021/03/17 00:30:33;;;;;;;40.50;23.80;;;;;;;3.60;82.11;101468.38;1724533;82;21215;-78
2021/03/17 00:33:00;;;;;;;37.20;22.70;;;;;;;3.58;82.17;101466.09;1756053;81;21129;-78
2021/03/17 00:35:28;;;;;;;36.03;19.90;;;;;;;3.58;82.18;101467.39;1756398;81;21687;-80
2021/03/17 00:37:55;;;;;;;28.65;16.55;;;;;;;3.57;82.08;101464.30;1756286;81;21901;-79
2021/03/17 00:40:23;;;;;;;24.80;16.12;;;;;;;3.56;82.11;101465.09;1724535;83;21172;-78
2021/03/17 00:42:50;;;;;;;21.95;14.70;;;;;;;3.53;81.99;101470.50;1756078;81;21572;-78
2021/03/17 00:45:17;;;;;;;23.80;14.58;;;;;;;3.52;82.16;101463.50;1724387;83;21215;-78
2021/03/17 00:47:44;;;;;;;24.27;13.50;;;;;;;3.50;82.11;101465.59;1755871;81;21217;-78
2021/03/17 00:50:14;;;;;;;20.25;11.97;;;;;;;3.53;82.21;101464.91;1724248;83;22807;-78
2021/03/17 00:52:41;;;;;;;16.85;10.38;;;;;;;3.55;82.09;101469.81;1756233;81;21182;-79
2021/03/17 00:55:10;;;;;;;17.77;10.88;;;;;;;3.52;82.02;101463.09;1718057;83;21199;-79
2021/03/17 00:57:37;;;;;;;17.02;10.32;;;;;;;3.52;81.97;101467.41;1756159;81;21162;-78
2021/03/17 01:00:07;;;;;;;20.43;12.03;;;;;;;3.50;81.97;101471.21;1724166;83;21213;-76
2021/03/17 01:02:35;;;;;;;17.90;11.53;;;;;;;3.45;81.89;101472.23;1724490;82;21903;-79
2021/03/17 01:05:02;;;;;;;15.32;9.93;;;;;;;3.42;81.93;101466.81;1756296;81;21376;-80
2021/03/17 01:07:29;;;;;;;15.98;8.40;;;;;;;3.39;81.90;101471.80;1722555;83;21129;-79
2021/03/17 01:09:56;;;;;;;16.02;8.68;;;;;;;3.40;81.96;101466.22;1737183;82;21336;-79
2021/03/17 01:12:24;;;;;;;13.32;8.38;;;;;;;3.37;81.84;101465.60;1750572;82;21144;-79
2021/03/17 01:14:51;;;;;;;14.70;7.78;;;;;;;3.36;81.88;101468.09;1750510;82;22828;-79
2021/03/17 01:17:18;;;;;;;13.15;7.75;;;;;;;3.35;81.87;101466.31;1750506;81;21248;-79
2021/03/17 01:19:45;;;;;;;10.98;6.65;;;;;;;3.33;81.88;101463.60;1750442;82;21568;-80
2021/03/17 01:22:12;;;;;;;12.37;6.30;;;;;;;3.34;81.98;101464.13;1750674;81;21337;-80
2021/03/17 01:24:39;;;;;;;11.20;6.10;;;;;;;3.34;81.94;101460.22;1756497;81;21195;-80
2021/03/17 01:27:07;;;;;;;9.60;6.28;;;;;;;3.35;81.95;101459.40;1756513;81;22010;-80
2021/03/17 01:29:34;;;;;;;10.08;6.10;;;;;;;3.38;81.96;101469.09;1768962;80;21169;-77
2021/03/17 01:32:02;;;;;;;11.50;7.33;;;;;;;3.40;82.01;101466.22;1768692;80;21689;-78
2021/03/17 01:34:29;;;;;;;11.70;6.72;;;;;;;3.42;82.02;101468.52;1768807;81;21165;-77
2021/03/17 01:36:56;;;;;;;15.15;7.35;;;;;;;3.40;81.98;101474.03;1768867;81;21148;-78
2021/03/17 01:39:23;;;;;;;11.45;6.58;;;;;;;3.40;82.01;101474.03;1768887;81;21900;-77
2021/03/17 01:41:50;;;;;;;11.12;6.25;;;;;;;3.34;81.89;101473.23;1755674;81;21195;-77
2021/03/17 01:44:17;;;;;;;11.43;5.78;;;;;;;3.29;81.85;101475.92;1768704;80;21192;-77
2021/03/17 01:46:44;;;;;;;14.73;5.70;;;;;;;3.21;81.84;101478.39;1768859;81;21236;-77
2021/03/17 01:49:11;;;;;;;9.03;5.42;;;;;;;3.14;81.94;101475.80;1768855;81;21235;-77
2021/03/17 01:51:38;;;;;;;8.83;5.40;;;;;;;3.11;82.01;101472.98;1755842;81;21900;-77
2021/03/17 01:54:05;;;;;;;8.88;5.20;;;;;;;3.07;82.02;101467.08;1768683;80;21204;-77
2021/03/17 01:56:32;;;;;;;9.90;5.12;;;;;;;3.03;82.12;101470.28;1768927;81;21244;-78
2021/03/17 01:59:00;;;;;;;9.60;5.65;;;;;;;3.01;82.24;101476.68;1769184;81;21900;-77
2021/03/17 02:01:27;;;;;;;12.37;6.67;;;;;;;3.03;82.38;101466.38;1726582;81;21128;-77
2021/03/17 02:03:54;;;;;;;12.07;5.47;;;;;;;3.05;82.44;101469.58;1769019;80;21894;-77
2021/03/17 02:06:21;;;;;;;11.63;5.70;;;;;;;3.05;82.43;101476.08;1768920;81;21224;-77
2021/03/17 02:08:48;;;;;;;9.40;5.58;;;;;;;3.09;82.57;101471.58;1755829;81;21625;-77
2021/03/17 02:11:15;;;;;;;9.60;5.45;;;;;;;3.09;82.53;101468.09;1768939;80;21157;-76
2021/03/17 02:14:02;;;;;;;8.90;5.33;;;;;;;3.10;82.65;101473.39;1755937;81;21239;-77
2021/03/17 02:17:04;;;;;;;8.03;4.53;;;;;;;3.12;82.76;101470.90;1768747;81;22782;-77
2021/03/17 02:19:48;;;;;;;8.55;5.05;;;;;;;3.16;82.87;101474.20;1755881;81;21191;-76
2021/03/17 02:22:51;;;;;;;11.50;5.97;;;;;;;3.16;82.82;101472.90;1768944;81;21708;-76
2021/03/17 02:25:53;;;;;;;8.70;5.65;;;;;;;3.16;82.96;101477.21;1757078;81;21189;-76
2021/03/17 02:29:00;;;;;;;10.40;6.80;;;;;;;3.18;83.15;101477.80;1757989;81;21157;-75
2021/03/17 02:32:04;;;;;;;9.48;5.03;;;;;;;3.29;83.28;101469.00;1888532;76;22328;-76
2021/03/17 02:34:36;;;;;;;7.17;4.53;;;;;;;3.24;83.06;101474.70;1856753;77;21213;-76
2021/03/17 02:37:05;;;;;;;5.30;3.65;;;;;;;3.17;83.26;101481.19;1826282;77;21950;-76
2021/03/17 02:39:57;;;;;;;6.87;3.55;;;;;;;3.18;83.36;101478.21;1856756;76;21127;-76
2021/03/17 02:42:40;;;;;;;8.33;4.00;;;;;;;3.12;83.53;101470.90;1787423;78;21184;-76
2021/03/17 02:45:17;;;;;;;7.65;3.72;;;;;;;3.13;83.54;101478.30;1801096;79;21211;-78
2021/03/17 02:47:50;;;;;;;5.30;3.47;;;;;;;3.10;83.67;101470.80;1801110;79;21176;-77
2021/03/17 02:50:18;;;;;;;5.85;3.35;;;;;;;3.08;83.67;101473.69;1800721;78;22851;-77
2021/03/17 02:52:46;;;;;;;4.65;3.37;;;;;;;3.12;83.86;101474.80;1800698;79;21590;-78
2021/03/17 02:55:14;;;;;;;8.48;3.95;;;;;;;3.10;83.75;101475.10;1800903;79;21160;-79
2021/03/17 02:57:41;;;;;;;10.05;3.85;;;;;;;3.07;83.79;101473.59;1800989;79;21214;-79
2021/03/17 03:00:12;;;;;;;17.42;7.58;;;;;;;3.05;83.90;101477.37;1801157;79;21156;-81
2021/03/17 03:02:43;;;;;;;9.25;4.67;;;;;;;3.06;83.98;101482.17;1801303;79;22686;-80
2021/03/17 03:05:12;;;;;;;7.78;4.67;;;;;;;3.07;84.36;101477.08;1801120;79;21567;-81
2021/03/17 03:07:39;;;;;;;9.83;5.67;;;;;;;3.06;84.29;101484.77;1781533;79;21140;-81
2021/03/17 03:10:08;;;;;;;8.25;4.80;;;;;;;3.06;84.18;101490.91;1801223;79;21127;-81
2021/03/17 03:12:37;;;;;;;11.10;5.42;;;;;;;3.06;84.30;101488.67;1801184;79;21103;-80
2021/03/17 03:15:05;;;;;;;7.83;3.98;;;;;;;3.05;84.23;101492.98;1800891;79;21882;-80
2021/03/17 03:17:33;;;;;;;9.28;3.60;;;;;;;3.06;84.28;101500.01;1800873;79;21140;-80
2021/03/17 03:20:01;;;;;;;6.37;3.40;;;;;;;3.02;84.10;101494.48;1801284;79;21136;-81
2021/03/17 03:22:28;;;;;;;8.78;3.50;;;;;;;2.98;83.92;101498.97;1801275;79;21187;-80
2021/03/17 03:24:55;;;;;;;7.17;3.58;;;;;;;2.94;83.96;101503.47;1816363;77;21178;-80
2021/03/17 03:27:23;;;;;;;5.70;3.25;;;;;;;2.90;84.05;101511.05;1857353;77;21874;-80
2021/03/17 03:29:50;;;;;;;8.50;4.00;;;;;;;2.86;83.88;101507.75;1857045;75;21744;-78
2021/03/17 03:32:17;;;;;;;7.80;3.70;;;;;;;2.81;83.91;101510.42;1856939;77;22249;-79
2021/03/17 03:34:44;;;;;;;5.85;3.40;;;;;;;2.80;84.08;101518.15;1856958;77;21134;-78
2021/03/17 03:37:12;;;;;;;6.03;2.90;;;;;;;2.77;84.05;101520.12;1857080;77;21167;-79
2021/03/17 03:39:39;;;;;;;4.17;2.77;;;;;;;2.77;83.95;101519.22;1857291;76;23079;-79
2021/03/17 03:42:06;;;;;;;3.37;2.00;;;;;;;2.79;83.95;101519.82;1856912;77;21131;-79
2021/03/17 03:44:34;;;;;;;2.98;2.20;;;;;;;2.77;83.64;101529.63;1856643;77;21620;-79
2021/03/17 03:47:01;;;;;;;4.22;2.77;;;;;;;2.71;83.56;101549.59;1856553;77;21715;-79
2021/03/17 03:49:28;;;;;;;4.92;2.37;;;;;;;2.62;83.47;101525.16;1856590;77;21568;-79
2021/03/17 03:52:09;;;;;;;4.80;1.95;;;;;;;2.57;83.45;101526.94;1856542;77;22098;-77
2021/03/17 03:54:40;;;;;;;4.50;2.27;;;;;;;2.51;83.59;101527.41;1856398;77;21102;-76
2021/03/17 03:57:24;;;;;;;3.60;2.40;;;;;;;2.46;83.73;101530.08;1856363;77;21174;-76
2021/03/17 03:59:55;;;;;;;2.85;2.02;;;;;;;2.44;83.76;101538.16;1856593;77;21193;-78
2021/03/17 04:02:25;;;;;;;6.20;2.98;;;;;;;2.44;83.90;101542.06;1856519;77;21135;-78
2021/03/17 04:04:53;;;;;;;4.45;2.60;;;;;;;2.42;83.91;101545.87;1856405;77;22648;-78
2021/03/17 04:07:20;;;;;;;4.85;2.98;;;;;;;2.42;83.99;101537.16;1825572;77;21158;-77
2021/03/17 04:09:51;;;;;;;3.58;2.67;;;;;;;2.40;83.86;101542.64;1856270;77;21616;-78
2021/03/17 04:12:20;;;;;;;8.18;2.55;;;;;;;2.33;83.81;101546.52;1825096;77;21240;-78
2021/03/17 04:14:53;;;;;;;5.25;3.40;;;;;;;2.21;83.65;101550.83;1856477;77;21345;-78
2021/03/17 04:17:26;;;;;;;7.40;4.95;;;;;;;2.06;83.56;101547.62;1856354;77;21106;-77
2021/03/17 04:20:04;;;;;;;9.65;3.77;;;;;;;1.94;83.58;101562.34;1856521;77;21150;-77
2021/03/17 04:22:31;;;;;;;2.77;2.30;;;;;;;1.83;83.70;101562.84;1856378;77;21107;-78
2021/03/17 04:24:59;;;;;;;6.37;2.67;;;;;;;1.77;83.94;101555.92;1855592;77;21175;-78
2021/03/17 04:27:27;;;;;;;4.78;2.50;;;;;;;1.71;83.87;101551.19;1854846;77;21511;-79
2021/03/17 04:29:54;;;;;;;4.45;2.60;;;;;;;1.71;84.21;101561.97;1854639;77;22112;-76
2021/03/17 04:32:21;;;;;;;3.37;2.00;;;;;;;1.68;84.15;101561.73;1857557;77;21136;-76
2021/03/17 04:34:49;;;;;;;4.50;2.72;;;;;;;1.68;84.31;101557.44;1857438;77;21191;-76
2021/03/17 04:37:16;;;;;;;5.22;2.98;;;;;;;1.71;84.40;101560.67;1857456;77;21570;-77
2021/03/17 04:39:43;;;;;;;5.00;3.75;;;;;;;1.78;84.49;101565.91;1857565;77;21176;-76
2021/03/17 04:42:11;;;;;;;7.47;3.95;;;;;;;1.78;84.37;101571.98;1841852;77;21885;-74
2021/03/17 04:44:38;;;;;;;7.35;3.92;;;;;;;1.78;84.26;101567.20;1847747;77;21115;-77
2021/03/17 04:47:05;;;;;;;4.70;2.98;;;;;;;1.78;84.30;101573.69;1842825;77;21215;-75
2021/03/17 04:49:33;;;;;;;5.80;3.17;;;;;;;1.72;84.08;101582.81;1858968;77;21193;-76
2021/03/17 04:52:00;;;;;;;3.83;2.70;;;;;;;1.72;84.13;101581.52;1841162;77;21102;-75
2021/03/17 04:54:27;;;;;;;6.92;3.33;;;;;;;1.71;83.86;101580.14;1809932;77;21887;-74
2021/03/17 04:56:55;;;;;;;3.80;2.67;;;;;;;1.67;83.73;101588.09;1858887;77;21173;-74
2021/03/17 04:59:22;;;;;;;4.70;3.12;;;;;;;1.61;83.54;101583.72;1837288;77;21130;-74
2021/03/17 05:01:49;;;;;;;4.35;2.30;;;;;;;1.62;83.82;101589.44;1858946;77;21624;-74
2021/03/17 05:04:16;;;;;;;3.87;1.90;;;;;;;1.65;83.72;101595.23;1830181;77;21138;-75
2021/03/17 05:06:46;;;;;;;9.38;2.42;;;;;;;1.62;83.47;101587.23;1825394;78;21881;-75
2021/03/17 05:09:15;;;;;;;6.55;2.40;;;;;;;1.66;83.44;101592.75;1832750;77;21334;-74
2021/03/17 05:11:42;;;;;;;2.70;2.45;;;;;;;1.65;83.33;101587.08;1828124;77;21146;-74
2021/03/17 05:14:09;;;;;;;4.62;2.52;;;;;;;1.63;83.31;101591.62;1841590;77;21190;-74
2021/03/17 05:16:36;;;;;;;3.62;2.20;;;;;;;1.65;83.40;101594.86;1826074;77;21147;-74
2021/03/17 05:19:04;;;;;;;6.60;2.52;;;;;;;1.68;83.22;101591.17;1859352;77;22181;-80
2021/03/17 05:21:32;;;;;;;4.62;2.20;;;;;;;1.71;83.13;101603.09;1827836;77;21142;-80
2021/03/17 05:23:59;;;;;;;4.72;2.10;;;;;;;1.67;82.81;101597.17;1846560;77;21578;-80
2021/03/17 05:26:26;;;;;;;3.52;2.20;;;;;;;1.66;82.71;101604.84;1845667;77;21165;-84
2021/03/17 05:28:53;;;;;;;4.10;2.33;;;;;;;1.66;82.66;101603.54;1859050;77;21201;-77
2021/03/17 05:31:20;;;;;;;3.27;1.87;;;;;;;1.67;82.73;101606.63;1844118;75;21883;-78
2021/03/17 05:33:48;;;;;;;3.37;1.90;;;;;;;1.70;82.51;101625.03;1832789;77;22343;-79
2021/03/17 05:36:15;;;;;;;4.55;2.00;;;;;;;1.64;82.28;101610.31;1853256;77;21103;-75
2021/03/17 05:38:42;;;;;;;6.08;2.33;;;;;;;1.67;82.43;101614.05;1834648;77;21120;-78
2021/03/17 05:41:09;;;;;;;3.08;2.00;;;;;;;1.73;82.51;101614.48;1851986;77;21193;-81
2021/03/17 05:43:36;;;;;;;3.08;1.90;;;;;;;1.76;82.36;101613.80;1824479;77;22850;-81
2021/03/17 05:46:05;;;;;;;3.05;2.45;;;;;;;1.82;82.31;101619.47;1832920;77;21190;-82
2021/03/17 05:48:35;;;;;;;3.12;2.40;;;;;;;1.86;82.28;101611.11;1837006;75;21114;-73
2021/03/17 05:51:02;;;;;;;5.60;2.45;;;;;;;1.92;82.17;101619.75;1825335;77;21404;-73
2021/03/17 05:53:29;;;;;;;4.37;2.35;;;;;;;1.94;82.01;101624.66;1842893;77;21166;-73
2021/03/17 05:56:01;;;;;;;10.63;7.58;;;;;;;2.00;82.11;101627.70;1827043;77;21886;-72
2021/03/17 05:58:29;;;;;;;4.50;3.02;;;;;;;2.11;82.10;101622.00;1823018;77;21154;-73
2021/03/17 06:00:56;;;;;;;5.33;2.65;;;;;;;2.17;81.98;101628.03;1823131;78;21123;-73
2021/03/17 06:03:23;;;;;;;4.28;2.25;;;;;;;2.21;81.73;101638.74;1822925;78;21148;-73
2021/03/17 06:05:50;;;;;;;6.03;2.55;;;;;;;2.22;81.17;101630.17;1822929;78;21612;-73
2021/03/17 06:08:24;;;;;;;5.10;2.52;;;;;;;2.19;81.27;101635.54;1822882;78;21847;-73
2021/03/17 06:10:52;;;;;;;6.70;2.50;;;;;;;2.20;81.23;101646.05;1822938;78;21127;-73
2021/03/17 06:13:21;;;;;;;5.25;2.52;;;;;;;2.20;81.18;101640.85;1824433;77;21194;-72
2021/03/17 06:16:00;;;;;;;4.78;2.25;;;;;;;2.21;80.93;101650.43;1841728;77;21714;-73
2021/03/17 06:18:43;;;;;;;3.15;2.12;;;;;;;2.18;80.69;101643.73;1855764;77;21127;-71
2021/03/17 06:21:11;;;;;;;4.75;2.85;;;;;;;2.19;80.55;101649.83;1856647;77;23350;-71
2021/03/17 06:23:38;;;;;;;3.87;2.45;;;;;;;2.19;80.73;101649.42;1856501;77;21182;-71
2021/03/17 06:26:05;;;;;;;4.58;2.70;;;;;;;2.25;80.69;101656.38;1856387;77;21174;-71
2021/03/17 06:28:32;;;;;;;4.87;2.90;;;;;;;2.32;80.84;101655.12;1856415;77;21154;-71
2021/03/17 06:30:59;;;;;;;5.37;3.42;;;;;;;2.45;80.73;101656.91;1829489;77;21577;-73
2021/03/17 06:33:26;;;;;;;5.25;2.80;;;;;;;2.44;80.40;101663.81;1855763;76;22752;-73
2021/03/17 06:36:15;;;;;;;3.50;2.50;;;;;;;2.41;79.98;101663.58;1855910;77;21239;-73
2021/03/17 06:38:42;;;;;;;7.05;3.05;;;;;;;2.39;80.14;101666.47;1832203;77;21222;-72
2021/03/17 06:41:10;;;;;;;4.15;2.77;;;;;;;2.37;79.92;101665.45;1826794;77;21270;-73
2021/03/17 06:43:46;;;;;;;3.58;2.60;;;;;;;2.43;80.19;101671.50;1824811;77;21162;-73
2021/03/17 06:46:18;;;;;;;7.00;3.27;;;;;;;2.46;79.86;101673.92;1837592;77;21918;-73
2021/03/17 06:48:45;;;;;;;6.28;3.83;;;;;;;2.57;80.17;101677.67;1822267;78;21181;-73
2021/03/17 06:51:19;;;;;;;4.95;3.10;;;;;;;2.75;79.97;101674.20;1822433;77;21210;-73
2021/03/17 06:53:54;;;;;;;7.37;3.52;;;;;;;2.82;79.42;101677.34;1822310;78;21178;-74
2021/03/17 06:56:32;;;;;;;5.53;2.95;;;;;;;2.85;79.54;101676.28;1822385;78;21592;-73
2021/03/17 06:59:01;;;;;;;6.45;2.50;;;;;;;2.94;79.11;101675.11;1822294;78;22197;-74
2021/03/17 07:01:40;;;;;;;4.70;3.12;;;;;;;3.15;79.54;101679.20;1822362;78;21138;-78
2021/03/17 07:04:10;;;;;;;4.97;3.42;;;;;;;3.36;78.96;101687.62;1822378;78;21202;-73
2021/03/17 07:06:41;;;;;;;4.83;3.22;;;;;;;3.34;78.79;101681.41;1822316;78;21643;-73
2021/03/17 07:09:21;;;;;;;4.60;3.80;;;;;;;3.25;77.79;101693.78;1821752;78;21557;-74
2021/03/17 07:11:50;;;;;;;5.45;3.65;;;;;;;3.05;77.92;101685.88;1822427;78;22866;-72
2021/03/17 07:14:25;;;;;;;5.85;3.15;;;;;;;2.98;78.32;101684.52;1822133;78;22485;-72
2021/03/17 07:16:52;;;;;;;4.08;3.20;;;;;;;2.97;78.03;101692.24;1822438;78;21286;-74
2021/03/17 07:19:39;;;;;;;11.05;3.45;;;;;;;2.86;77.99;101696.67;1822257;78;21210;-74
2021/03/17 07:22:12;;;;;;;5.12;3.33;;;;;;;2.85;78.20;101711.75;1822612;78;21198;-72
2021/03/17 07:24:43;;;;;;;9.38;3.80;;;;;;;2.85;78.46;101702.28;1859483;75;22873;-73
2021/03/17 07:27:20;;;;;;;6.42;3.35;;;;;;;2.91;78.32;101699.22;1851884;76;21349;-73
2021/03/17 07:30:13;;;;;;;6.35;3.95;;;;;;;2.90;78.26;101707.80;1865020;76;21597;-73
2021/03/17 07:33:03;;;;;;;6.10;3.50;;;;;;;2.94;78.25;101712.41;1747751;81;21317;-74
2021/03/17 07:35:40;;;;;;;7.92;4.03;;;;;;;3.01;78.34;101702.95;1810539;78;22796;-75
2021/03/17 07:38:13;;;;;;;6.42;3.80;;;;;;;3.04;78.46;101704.86;1789538;79;21233;-75
2021/03/17 07:40:42;;;;;;;7.45;4.17;;;;;;;3.19;78.41;101708.56;1764888;81;21850;-72
2021/03/17 07:43:09;;;;;;;8.63;3.92;;;;;;;3.39;78.73;101709.03;1771780;79;21695;-72
2021/03/17 07:45:36;;;;;;;6.30;3.67;;;;;;;3.58;78.36;101708.59;1763052;80;21136;-72
2021/03/17 07:48:08;;;;;;;5.22;3.65;;;;;;;3.76;78.42;101706.36;1753007;81;21223;-71
2021/03/17 07:50:37;;;;;;;7.40;3.75;;;;;;;3.96;78.08;101702.09;1769800;80;21239;-69
2021/03/17 07:53:21;;;;;;;6.17;3.37;;;;;;;4.09;77.68;101702.11;1759632;81;22813;-72
2021/03/17 07:55:49;;;;;;;3.67;3.30;;;;;;;4.03;77.00;101711.20;1733475;81;21211;-73
2021/03/17 07:58:16;;;;;;;8.05;4.10;;;;;;;3.82;76.91;101706.77;1787832;80;21218;-73
2021/03/17 08:00:43;;;;;;;7.53;3.83;;;;;;;3.73;76.95;101703.53;1759306;80;21222;-74
2021/03/17 08:03:14;;;;;;;5.50;3.85;;;;;;;3.72;77.29;101700.41;1756346;81;21749;-73
2021/03/17 08:05:42;;;;;;;10.95;4.15;;;;;;;3.73;77.01;101711.34;1766678;80;21969;-74
2021/03/17 08:08:09;;;;;;;4.72;3.47;;;;;;;3.61;77.08;101708.41;1755355;80;21219;-74
2021/03/17 08:10:37;;;;;;;6.47;3.50;;;;;;;3.57;77.15;101715.92;1754852;81;21258;-73
2021/03/17 08:13:04;;;;;;;8.95;3.85;;;;;;;3.52;77.14;101711.69;1754692;81;21622;-73
2021/03/17 08:15:31;;;;;;;9.25;4.55;;;;;;;3.58;77.60;101712.50;1755000;80;21602;-72
2021/03/17 08:17:58;;;;;;;8.28;3.40;;;;;;;3.70;77.58;101706.84;1755617;81;21965;-73
2021/03/17 08:20:27;;;;;;;5.83;3.10;;;;;;;3.72;77.37;101726.45;1756949;80;21148;-72
2021/03/17 08:22:57;;;;;;;7.28;3.92;;;;;;;3.59;77.11;101717.82;1762807;80;21211;-73
2021/03/17 08:25:46;;;;;;;6.15;2.80;;;;;;;3.56;77.24;101737.12;1729984;82;21222;-72
2021/03/17 08:28:20;;;;;;;6.28;2.47;;;;;;;3.58;77.40;101725.11;1733094;81;21223;-73
2021/03/17 08:30:49;;;;;;;3.55;2.08;;;;;;;3.66;77.36;101726.56;1740334;81;25507;-72
2021/03/17 08:33:36;;;;;;;5.55;2.90;;;;;;;3.57;76.81;101741.95;1750592;81;21239;-72
2021/03/17 08:36:14;;;;;;;6.03;3.83;;;;;;;3.50;77.18;101734.11;1709346;83;21585;-73
2021/03/17 08:38:48;;;;;;;4.72;3.12;;;;;;;3.54;77.50;101740.43;1702483;84;21776;-73
2021/03/17 08:41:16;;;;;;;6.58;3.02;;;;;;;3.63;77.33;101747.17;1726260;82;21208;-73
2021/03/17 08:43:45;;;;;;;8.00;3.30;;;;;;;3.63;77.27;101737.16;1723482;83;22906;-72
2021/03/17 08:46:18;;;;;;;6.75;4.08;;;;;;;3.62;77.47;101747.98;1730053;82;21279;-72
2021/03/17 08:49:03;;;;;;;8.70;3.80;;;;;;;3.73;77.53;101748.70;1720738;82;21757;-70
2021/03/17 08:51:51;;;;;;;9.38;3.60;;;;;;;3.82;77.43;101746.72;1720479;82;21102;-72
2021/03/17 08:54:41;;;;;;;6.33;2.58;;;;;;;3.94;77.50;101741.84;1723787;83;21187;-71
2021/03/17 08:57:09;;;;;;;4.60;2.50;;;;;;;4.12;77.39;101739.59;1706087;83;23067;-72
2021/03/17 08:59:45;;;;;;;10.82;3.45;;;;;;;4.21;76.65;101751.93;1690266;84;21259;-71
2021/03/17 09:02:33;;;;;;;6.05;2.92;;;;;;;4.14;76.54;101739.28;1739160;81;21211;-70
2021/03/17 09:05:08;;;;;;;7.00;3.10;;;;;;;4.19;76.60;101740.50;1702074;84;21224;-71
2021/03/17 09:07:35;;;;;;;7.20;3.40;;;;;;;4.27;76.75;101747.12;1746525;81;21593;-71
2021/03/17 09:10:13;;;;;;;7.08;3.15;;;;;;;4.43;76.65;101747.71;1726705;82;21909;-72
2021/03/17 09:12:46;;;;;;;7.28;3.77;;;;;;;4.57;76.50;101737.80;1702142;84;21680;-72
2021/03/17 09:15:18;;;;;;;7.95;4.12;;;;;;;4.71;76.03;101743.00;1701947;84;21223;-73
2021/03/17 09:17:54;;;;;;;8.33;3.00;;;;;;;4.92;76.38;101739.55;1722632;82;21219;-72
2021/03/17 09:20:42;;;;;;;6.90;2.77;;;;;;;5.00;75.13;101737.94;1731421;81;21265;-71
2021/03/17 09:23:21;;;;;;;9.28;3.10;;;;;;;5.04;75.40;101742.55;1730961;81;21976;-70
2021/03/17 09:25:56;;;;;;;4.72;2.80;;;;;;;5.28;75.70;101740.09;1738480;81;21161;-71
2021/03/17 09:28:30;;;;;;;5.42;2.08;;;;;;;5.50;75.45;101741.92;1727809;83;21216;-72
2021/03/17 09:31:05;;;;;;;5.75;3.02;;;;;;;5.67;74.76;101731.56;1740372;81;21235;-73
2021/03/17 09:33:35;;;;;;;3.75;2.10;;;;;;;5.78;74.52;101735.73;1734948;81;21219;-70
2021/03/17 09:36:07;;;;;;;5.75;2.40;;;;;;;5.79;74.02;101748.00;1766700;80;21882;-71
2021/03/17 09:38:47;;;;;;;2.45;1.67;;;;;;;5.78;73.83;101752.33;1789168;80;21180;-71
2021/03/17 09:41:20;;;;;;;2.65;1.92;;;;;;;5.71;73.44;101747.54;1786337;80;21639;-73
2021/03/17 09:43:53;;;;;;;2.87;1.75;;;;;;;5.68;73.05;101738.61;1790987;80;21200;-73
2021/03/17 09:46:32;;;;;;;6.97;2.10;;;;;;;5.62;73.06;101758.73;1791021;80;21645;-73
2021/03/17 09:49:17;;;;;;;5.08;2.35;;;;;;;5.70;73.79;101755.28;1776134;80;21890;-72
2021/03/17 09:51:58;;;;;;;7.10;2.17;;;;;;;5.75;73.62;101765.20;1756467;80;21212;-73
2021/03/17 09:54:30;;;;;;;4.53;2.25;;;;;;;5.76;73.38;101751.72;1780401;80;21167;-74
2021/03/17 09:57:05;;;;;;;2.95;1.65;;;;;;;5.90;73.74;101748.66;1780266;80;21188;-73
2021/03/17 09:59:46;;;;;;;4.37;2.12;;;;;;;5.99;73.21;101757.08;1764694;80;21619;-72
2021/03/17 10:05:02;;;;;;;6.50;1.72;;;;;;;5.85;72.25;101754.48;1888530;76;22260;-74
2021/03/17 10:07:34;;;;;;;2.77;1.47;;;;;;;5.86;72.44;101767.16;1857201;77;21095;-71
2021/03/17 10:10:02;;;;;;;3.47;1.60;;;;;;;5.84;72.05;101759.64;1853974;77;21933;-73
2021/03/17 10:12:31;;;;;;;6.00;1.80;;;;;;;5.79;71.82;101767.59;1840013;77;21152;-73
2021/03/17 10:15:09;;;;;;;6.65;1.80;;;;;;;5.77;72.03;101766.19;1851414;76;21685;-71
2021/03/17 10:17:36;;;;;;;9.03;2.20;;;;;;;5.88;72.07;101759.01;1854942;77;21191;-74
2021/03/17 10:20:12;;;;;;;5.03;2.33;;;;;;;5.90;71.65;101769.14;1828930;76;21111;-73
2021/03/17 10:22:40;;;;;;;10.10;4.95;;;;;;;5.76;70.97;101773.92;1850349;75;21880;-73
2021/03/17 10:25:11;;;;;;;12.93;6.15;;;;;;;5.55;70.91;101779.64;1878378;75;21180;-73
2021/03/17 10:27:42;;;;;;;22.80;20.48;;;;;;;5.27;70.97;101773.10;1825571;75;21111;-72
2021/03/17 10:30:16;;;;;;;4.97;3.55;;;;;;;5.09;71.04;101775.84;1785853;79;21184;-72
2021/03/17 10:32:45;;;;;;;;;;;;;;;4.94;71.52;101767.98;1774311;78;21199;-73
2021/03/17 10:35:17;;;;;;;10.82;1.70;;;;;;;4.99;71.57;101777.91;1774862;80;23071;-72
2021/03/17 10:37:45;;;;;;;8.88;4.22;;;;;;;5.10;71.97;101777.67;1779604;80;21207;-72
2021/03/17 10:40:23;;;;;;;3.60;1.80;;;;;;;5.19;71.39;101782.17;1754975;80;21207;-72
2021/03/17 10:42:56;;;;;;;2.58;1.67;;;;;;;5.11;71.27;101789.52;1760692;80;21235;-71
2021/03/17 10:45:30;;;;;;;43.65;22.00;;;;;;;5.11;71.37;101774.27;1756627;81;21206;-71
2021/03/17 10:47:58;;;;;;;6.28;2.95;;;;;;;5.14;71.43;101791.00;1777884;79;21895;-70
2021/03/17 10:50:34;;;;;;;6.10;2.02;;;;;;;5.16;71.50;101780.28;1796695;79;21167;-70
2021/03/17 10:53:01;;;;;;;3.52;2.17;;;;;;;5.09;70.84;101773.24;1796618;79;21131;-71
2021/03/17 10:55:30;;;;;;;1.80;1.50;;;;;;;5.14;71.18;101778.36;1796682;79;21195;-72
2021/03/17 10:58:16;;;;;;;4.37;1.47;;;;;;;5.24;71.00;101773.83;1795596;79;21170;-74
2021/03/17 11:00:45;;;;;;;4.85;2.65;;;;;;;5.42;70.84;101767.94;1796595;79;21970;-73
2021/03/17 11:03:40;;;;;;;6.50;1.75;;;;;;;5.47;70.87;101769.13;1799154;78;21613;-73
2021/03/17 11:06:14;;;;;;;2.60;1.80;;;;;;;5.65;70.49;101765.46;1819388;77;22305;-73
2021/03/17 11:08:42;;;;;;;5.30;2.02;;;;;;;5.68;70.24;101763.02;1818845;78;21286;-72
2021/03/17 11:11:10;;;;;;;44.48;19.37;;;;;;;5.71;70.21;101772.77;1819319;77;21184;-74
2021/03/17 11:13:42;;;;;;;7.17;3.60;;;;;;;5.74;70.45;101762.07;1815685;78;21944;-72
2021/03/17 11:16:13;;;;;;;4.20;2.20;;;;;;;5.74;70.25;101765.98;1776773;79;21205;-72
2021/03/17 11:18:48;;;;;;;4.45;1.92;;;;;;;5.64;70.12;101764.53;1783135;79;21179;-73
2021/03/17 11:21:25;;;;;;;3.40;2.25;;;;;;;5.56;69.76;101757.95;1787798;79;21602;-71
2021/03/17 11:23:54;;;;;;;5.53;1.70;;;;;;;5.31;69.82;101759.84;1820690;78;21656;-73
2021/03/17 11:26:25;;;;;;;4.92;1.57;;;;;;;5.14;69.62;101770.53;1806586;78;22875;-72
2021/03/17 11:28:52;;;;;;;2.25;1.50;;;;;;;5.19;69.72;101759.57;1800795;79;21205;-73
2021/03/17 11:31:28;;;;;;;6.65;3.02;;;;;;;5.58;70.32;101760.66;1823605;78;21120;-72
2021/03/17 11:33:55;;;;;;;6.25;1.80;;;;;;;5.86;69.38;101768.47;1805852;79;21212;-72
2021/03/17 11:36:22;;;;;;;4.35;1.80;;;;;;;5.85;68.96;101762.73;1802911;78;21202;-72
2021/03/17 11:38:49;;;;;;;33.40;18.62;;;;;;;5.89;69.05;101764.71;1767902;79;21984;-72
2021/03/17 11:41:17;;;;;;;16.32;5.25;;;;;;;5.87;68.35;101779.40;1769655;79;21182;-72
2021/03/17 11:43:44;;;;;;;10.00;2.20;;;;;;;5.81;68.15;101760.75;1780683;79;21207;-72
2021/03/17 11:46:12;;;;;;;18.98;15.40;;;;;;;5.83;68.46;101766.55;1783682;79;21665;-72
2021/03/17 11:48:39;;;;;;;5.97;2.00;;;;;;;5.76;67.68;101773.55;1794965;79;21163;-72
2021/03/17 11:51:07;;;;;;;7.97;2.10;;;;;;;5.45;67.30;101778.58;1786327;79;21989;-73
2021/03/17 11:53:35;;;;;;;6.95;2.08;;;;;;;5.23;67.92;101768.50;1773101;78;21640;-72